Time;durP1;ratioP1;P1;durP2;ratioP2;P2;SDS_P1;SDS_P2;PMS_P1;PMS_P2;Temp;Humidity;BMP_temperature;BMP_pressure;BME280_temperature;BME280_humidity;BME280_pressure;Samples;Min_cycle;Max_cycle;Signal;HPM_P1;HPM_P2
2022/11/03 00:01:54;;;;;;;19.83;8.82;;;;;;;;;;5092210;28;20028;-65
2022/11/03 00:04:21;;;;;;;19.70;9.63;;;;;;;;;;5091179;28;20423;-64
2022/11/03 00:06:48;;;;;;;20.45;8.82;;;;;;;;;;5074077;28;20023;-65
2022/11/03 00:09:15;;;;;;;20.50;8.73;;;;;;;;;;5092096;28;20111;-64
2022/11/03 00:11:42;;;;;;;18.58;8.40;;;;;;;;;;5077056;28;20050;-64
2022/11/03 00:14:09;;;;;;;17.77;8.15;;;;;;;;;;5077116;28;20044;-64
2022/11/03 00:16:35;;;;;;;20.52;9.18;;;;;;;;;;5095924;28;20077;-65
2022/11/03 00:19:01;;;;;;;22.65;9.10;;;;;;;;;;5094799;28;20048;-65
2022/11/03 00:21:27;;;;;;;22.20;8.70;;;;;;;;;;5095816;28;20053;-64
2022/11/03 00:23:54;;;;;;;16.73;8.80;;;;;;;;;;5076972;28;20044;-65
2022/11/03 00:26:21;;;;;;;16.80;8.35;;;;;;;;;;5077415;28;20667;-64
2022/11/03 00:28:48;;;;;;;18.55;8.60;;;;;;;;;;5096094;28;20016;-64
2022/11/03 00:31:16;;;;;;;19.77;8.43;;;;;;;;;;5095809;28;20028;-65
2022/11/03 00:33:42;;;;;;;17.42;8.57;;;;;;;;;;5094935;28;20024;-64
2022/11/03 00:36:11;;;;;;;21.45;8.85;;;;;;;;;;5077449;28;20078;-64
2022/11/03 00:38:37;;;;;;;19.55;8.60;;;;;;;;;;5077550;28;20061;-66
2022/11/03 00:41:05;;;;;;;19.02;8.45;;;;;;;;;;5095686;28;20020;-65
2022/11/03 00:43:31;;;;;;;19.02;7.97;;;;;;;;;;5094506;28;20368;-66
2022/11/03 00:45:58;;;;;;;17.63;8.63;;;;;;;;;;5095413;28;20020;-65
2022/11/03 00:48:31;;;;;;;23.02;9.38;;;;;;;;;;5095162;28;20023;-64
2022/11/03 00:51:13;;;;;;;17.05;8.45;;;;;;;;;;5077544;28;20540;-64
2022/11/03 00:53:40;;;;;;;20.17;8.90;;;;;;;;;;5094440;28;20048;-65
2022/11/03 00:56:07;;;;;;;16.17;7.85;;;;;;;;;;5077164;28;20045;-62
2022/11/03 00:58:33;;;;;;;22.42;9.07;;;;;;;;;;5094909;28;20130;-64
2022/11/03 01:01:00;;;;;;;19.83;8.65;;;;;;;;;;5095344;28;20038;-64
2022/11/03 01:03:26;;;;;;;20.20;8.38;;;;;;;;;;5094292;28;20039;-65
2022/11/03 01:08:37;;;;;;;21.52;8.90;;;;;;;;;;5094831;28;20491;-65
2022/11/03 01:13:59;;;;;;;17.88;8.75;;;;;;;;;;5094437;28;20035;-64
2022/11/03 01:16:25;;;;;;;18.10;8.90;;;;;;;;;;5076431;28;20077;-65
2022/11/03 01:18:51;;;;;;;20.23;8.88;;;;;;;;;;5094193;28;20028;-65
2022/11/03 01:21:17;;;;;;;22.13;9.43;;;;;;;;;;5094167;28;20107;-64
2022/11/03 01:23:43;;;;;;;18.65;8.82;;;;;;;;;;5093844;28;20103;-66
2022/11/03 01:26:10;;;;;;;20.05;9.30;;;;;;;;;;5076211;28;20012;-65
2022/11/03 01:28:37;;;;;;;21.25;8.93;;;;;;;;;;5094324;28;20016;-65
2022/11/03 01:31:07;;;;;;;17.95;8.63;;;;;;;;;;5094088;28;20047;-65
2022/11/03 01:33:33;;;;;;;17.80;8.88;;;;;;;;;;5093481;28;20020;-65
2022/11/03 01:35:59;;;;;;;18.20;8.68;;;;;;;;;;5076204;28;20031;-64
2022/11/03 01:38:25;;;;;;;18.25;8.40;;;;;;;;;;5075849;28;20024;-64
2022/11/03 01:40:51;;;;;;;18.50;8.85;;;;;;;;;;5093804;28;20016;-64
2022/11/03 01:43:18;;;;;;;19.17;9.07;;;;;;;;;;5075790;28;20107;-65
2022/11/03 01:45:45;;;;;;;20.13;9.30;;;;;;;;;;5075838;28;20023;-64
2022/11/03 01:48:12;;;;;;;21.90;9.25;;;;;;;;;;5075678;28;20020;-64
2022/11/03 01:50:40;;;;;;;23.30;9.40;;;;;;;;;;5075622;28;20027;-64
2022/11/03 01:53:06;;;;;;;23.92;9.60;;;;;;;;;;5093190;28;20020;-65
2022/11/03 01:55:35;;;;;;;24.35;10.15;;;;;;;;;;5075803;28;20052;-65
2022/11/03 01:58:01;;;;;;;;;;;;;;;;;;5094208;28;20016;-65
2022/11/03 02:00:27;;;;;;;16.95;8.40;;;;;;;;;;5075516;28;20347;-65
2022/11/03 02:02:53;;;;;;;17.67;8.77;;;;;;;;;;5093656;28;20020;-66
2022/11/03 02:05:20;;;;;;;20.42;9.63;;;;;;;;;;5092775;28;20016;-65
2022/11/03 02:07:46;;;;;;;18.23;9.00;;;;;;;;;;5093657;28;20069;-64
2022/11/03 02:10:12;;;;;;;19.88;9.13;;;;;;;;;;5075842;28;20024;-65
2022/11/03 02:12:38;;;;;;;18.80;8.98;;;;;;;;;;5075864;28;20471;-65
2022/11/03 02:15:09;;;;;;;20.88;9.45;;;;;;;;;;5094023;28;20498;-64
2022/11/03 02:17:35;;;;;;;21.23;8.70;;;;;;;;;;5093838;28;20476;-64
2022/11/03 02:20:04;;;;;;;19.08;9.00;;;;;;;;;;5075468;28;20030;-61
2022/11/03 02:22:36;;;;;;;16.55;8.70;;;;;;;;;;5075523;28;20081;-64
2022/11/03 02:25:09;;;;;;;21.67;9.30;;;;;;;;;;5092988;28;20466;-62
2022/11/03 02:27:35;;;;;;;18.33;8.60;;;;;;;;;;5075514;28;20478;-64
2022/11/03 02:30:01;;;;;;;17.88;8.80;;;;;;;;;;5093255;28;20020;-63
2022/11/03 02:32:48;;;;;;;22.27;10.43;;;;;;;;;;5074834;28;20535;-64
2022/11/03 02:35:21;;;;;;;19.45;9.20;;;;;;;;;;5092510;28;20020;-64
2022/11/03 02:37:49;;;;;;;20.05;9.05;;;;;;;;;;5093759;28;20028;-64
2022/11/03 02:40:17;;;;;;;19.08;9.43;;;;;;;;;;5074989;28;20099;-64
2022/11/03 02:42:46;;;;;;;20.48;10.05;;;;;;;;;;5075315;28;20028;-65
2022/11/03 02:45:13;;;;;;;20.60;9.55;;;;;;;;;;5074142;28;20368;-64
2022/11/03 02:47:40;;;;;;;22.23;9.57;;;;;;;;;;5074871;28;20024;-64
2022/11/03 02:50:09;;;;;;;20.63;9.35;;;;;;;;;;5092884;28;20020;-65
2022/11/03 02:52:42;;;;;;;17.88;9.02;;;;;;;;;;5074868;28;20483;-65
2022/11/03 02:55:27;;;;;;;21.92;8.85;;;;;;;;;;5092391;28;20040;-68
2022/11/03 02:58:00;;;;;;;20.90;9.73;;;;;;;;;;5092715;28;20102;-65
2022/11/03 03:00:27;;;;;;;20.35;8.63;;;;;;;;;;5092692;28;20039;-65
2022/11/03 03:02:57;;;;;;;19.20;8.88;;;;;;;;;;5092893;28;20016;-65
2022/11/03 03:05:24;;;;;;;16.10;8.63;;;;;;;;;;5092291;28;20061;-64
2022/11/03 03:07:53;;;;;;;18.55;8.73;;;;;;;;;;5092624;28;20043;-67
2022/11/03 03:10:25;;;;;;;17.83;8.85;;;;;;;;;;5074576;28;20012;-66
2022/11/03 03:12:53;;;;;;;19.90;9.60;;;;;;;;;;5074683;28;20032;-66
2022/11/03 03:15:23;;;;;;;20.85;10.15;;;;;;;;;;5091591;28;20024;-66
2022/11/03 03:17:52;;;;;;;20.63;8.40;;;;;;;;;;5074433;28;20063;-66
2022/11/03 03:20:28;;;;;;;21.60;8.50;;;;;;;;;;5092692;28;20368;-65
2022/11/03 03:23:00;;;;;;;16.98;8.75;;;;;;;;;;5092338;28;20425;-64
2022/11/03 03:25:32;;;;;;;21.85;9.10;;;;;;;;;;5073819;28;20020;-65
2022/11/03 03:28:00;;;;;;;17.25;8.57;;;;;;;;;;5092509;28;20061;-65
2022/11/03 03:30:26;;;;;;;;;;;;;;;;;;5092855;28;20012;-65
2022/11/03 03:32:53;;;;;;;18.95;9.85;;;;;;;;;;5074253;28;19988;-63
2022/11/03 03:35:22;;;;;;;16.77;8.57;;;;;;;;;;5091823;28;20043;-65
2022/11/03 03:37:50;;;;;;;19.13;8.93;;;;;;;;;;5092286;28;20027;-65
2022/11/03 03:40:20;;;;;;;17.98;8.73;;;;;;;;;;5073924;28;20020;-65
2022/11/03 03:42:47;;;;;;;19.92;9.18;;;;;;;;;;5074093;28;20019;-65
2022/11/03 03:45:13;;;;;;;23.10;9.77;;;;;;;;;;5075513;28;20022;-63
2022/11/03 03:47:39;;;;;;;19.17;8.70;;;;;;;;;;5096417;28;20130;-65
2022/11/03 03:50:06;;;;;;;16.63;8.48;;;;;;;;;;5095831;28;20020;-65
2022/11/03 03:52:33;;;;;;;17.77;8.85;;;;;;;;;;5096101;28;20040;-64
2022/11/03 03:54:59;;;;;;;21.10;8.73;;;;;;;;;;5095391;28;20077;-64
2022/11/03 03:57:27;;;;;;;24.65;9.70;;;;;;;;;;5096956;28;20028;-64
2022/11/03 03:59:53;;;;;;;20.20;8.55;;;;;;;;;;5077680;28;20126;-65
2022/11/03 04:02:19;;;;;;;21.55;8.93;;;;;;;;;;5096102;28;20016;-65
2022/11/03 04:04:45;;;;;;;19.15;9.20;;;;;;;;;;5095005;28;20043;-64
2022/11/03 04:09:56;;;;;;;17.88;8.82;;;;;;;;;;5078792;28;20471;-63
2022/11/03 04:23:23;;;;;;;18.38;8.65;;;;;;;;;;5094645;28;20070;-65
2022/11/03 04:25:51;;;;;;;22.25;8.93;;;;;;;;;;5095480;28;20024;-64
2022/11/03 04:28:17;;;;;;;20.25;8.85;;;;;;;;;;5077231;28;20062;-64
2022/11/03 04:30:43;;;;;;;22.08;8.57;;;;;;;;;;5077046;28;20031;-65
2022/11/03 04:33:14;;;;;;;18.15;8.80;;;;;;;;;;5076489;28;20402;-65
2022/11/03 04:35:43;;;;;;;20.15;8.82;;;;;;;;;;5095350;28;20027;-65
2022/11/03 04:38:19;;;;;;;19.40;9.38;;;;;;;;;;5095174;28;20026;-65
2022/11/03 04:40:46;;;;;;;18.05;8.70;;;;;;;;;;5076442;28;20024;-65
2022/11/03 04:43:17;;;;;;;16.90;8.57;;;;;;;;;;5092999;28;20016;-65
2022/11/03 04:45:44;;;;;;;23.52;9.68;;;;;;;;;;5095159;28;20138;-65
2022/11/03 04:48:13;;;;;;;18.83;9.05;;;;;;;;;;5094789;28;20020;-66
2022/11/03 04:50:40;;;;;;;17.65;8.63;;;;;;;;;;5086485;22;20053;-61
2022/11/03 04:53:12;;;;;;;18.55;8.98;;;;;;;;;;5053689;28;20044;-61
2022/11/03 04:55:41;;;;;;;19.38;8.80;;;;;;;;;;5053407;28;20147;-59
2022/11/03 04:58:15;;;;;;;21.02;9.13;;;;;;;;;;5053608;28;20024;-59
2022/11/03 05:00:41;;;;;;;22.15;8.70;;;;;;;;;;5036260;28;20038;-60
2022/11/03 05:03:12;;;;;;;18.35;8.85;;;;;;;;;;5053530;28;20017;-61
2022/11/03 05:05:38;;;;;;;18.92;8.75;;;;;;;;;;5036569;28;20090;-61
2022/11/03 05:08:05;;;;;;;23.08;9.00;;;;;;;;;;5035990;28;20048;-60
2022/11/03 05:10:31;;;;;;;17.55;9.10;;;;;;;;;;5035909;28;20153;-60
2022/11/03 05:12:59;;;;;;;18.52;8.95;;;;;;;;;;5036507;28;20028;-59
2022/11/03 05:15:31;;;;;;;20.52;9.68;;;;;;;;;;5052686;28;20484;-61
2022/11/03 05:17:58;;;;;;;17.35;9.13;;;;;;;;;;5053814;28;20033;-61
2022/11/03 05:20:40;;;;;;;16.95;8.57;;;;;;;;;;5053526;28;20059;-61
2022/11/03 05:23:10;;;;;;;19.83;9.00;;;;;;;;;;5053074;28;20398;-61
2022/11/03 05:25:40;;;;;;;18.13;8.70;;;;;;;;;;5051913;28;20017;-59
2022/11/03 05:28:18;;;;;;;20.38;9.40;;;;;;;;;;5035673;28;20021;-61
2022/11/03 05:30:44;;;;;;;;;;;;;;;;;;5053771;28;20044;-60
2022/11/03 05:33:26;;;;;;;17.83;8.68;;;;;;;;;;5052567;28;19905;-58
2022/11/03 05:35:52;;;;;;;20.25;8.98;;;;;;;;;;5035424;28;20021;-61
2022/11/03 05:38:19;;;;;;;20.73;10.05;;;;;;;;;;5053625;28;20021;-60
2022/11/03 05:40:45;;;;;;;20.70;9.15;;;;;;;;;;5057333;28;20020;-60
2022/11/03 05:43:13;;;;;;;25.10;12.93;;;;;;;;;;5073335;28;20031;-61
2022/11/03 05:45:39;;;;;;;18.27;9.18;;;;;;;;;;5073699;28;20044;-60
2022/11/03 05:48:16;;;;;;;19.88;9.18;;;;;;;;;;5073237;28;20365;-60
2022/11/03 05:50:42;;;;;;;21.33;9.60;;;;;;;;;;5072828;28;20376;-61
2022/11/03 05:53:27;;;;;;;24.20;10.02;;;;;;;;;;5054469;28;20036;-60
2022/11/03 05:55:54;;;;;;;19.00;8.88;;;;;;;;;;5073093;28;20036;-60
2022/11/03 05:58:32;;;;;;;22.35;9.40;;;;;;;;;;5072851;28;20025;-61
2022/11/03 06:00:59;;;;;;;19.08;8.68;;;;;;;;;;5054546;28;20029;-59
2022/11/03 06:03:29;;;;;;;23.92;9.20;;;;;;;;;;5072035;28;20097;-61
2022/11/03 06:05:55;;;;;;;21.75;10.40;;;;;;;;;;5072726;28;20495;-60
2022/11/03 06:08:23;;;;;;;16.70;9.10;;;;;;;;;;5059459;28;20090;-58
2022/11/03 06:10:51;;;;;;;21.40;9.68;;;;;;;;;;5034481;28;20029;-60
2022/11/03 06:13:22;;;;;;;17.30;8.70;;;;;;;;;;5051531;28;20036;-61
2022/11/03 06:15:51;;;;;;;18.35;9.00;;;;;;;;;;5034513;28;20047;-59
2022/11/03 06:18:21;;;;;;;27.80;10.05;;;;;;;;;;5052114;28;20104;-62
2022/11/03 06:20:51;;;;;;;21.42;9.95;;;;;;;;;;5034290;28;20021;-61
2022/11/03 06:23:18;;;;;;;25.77;10.48;;;;;;;;;;5049499;28;20171;-58
2022/11/03 06:25:44;;;;;;;21.15;10.55;;;;;;;;;;5052261;28;20043;-59
2022/11/03 06:28:14;;;;;;;17.42;8.90;;;;;;;;;;5052748;28;20029;-56
2022/11/03 06:30:41;;;;;;;21.02;10.00;;;;;;;;;;5054050;28;20032;-60
2022/11/03 06:33:27;;;;;;;19.35;8.95;;;;;;;;;;5051142;28;20036;-62
2022/11/03 06:35:59;;;;;;;22.83;9.13;;;;;;;;;;5034861;28;20123;-59
2022/11/03 06:38:28;;;;;;;18.80;9.48;;;;;;;;;;5034136;28;20029;-60
2022/11/03 06:40:54;;;;;;;18.00;9.38;;;;;;;;;;5051364;28;20167;-61
2022/11/03 06:43:24;;;;;;;18.40;8.73;;;;;;;;;;5033695;28;20051;-60
2022/11/03 06:45:53;;;;;;;17.58;9.32;;;;;;;;;;5051860;28;20028;-61
2022/11/03 06:48:21;;;;;;;18.65;9.10;;;;;;;;;;5033605;28;20021;-58
2022/11/03 06:50:47;;;;;;;19.02;9.43;;;;;;;;;;5051523;28;20125;-60
2022/11/03 06:53:18;;;;;;;20.45;10.90;;;;;;;;;;5032955;28;20486;-60
2022/11/03 06:55:46;;;;;;;19.90;9.60;;;;;;;;;;5033870;28;20032;-60
2022/11/03 06:58:32;;;;;;;16.98;9.13;;;;;;;;;;5051545;28;20047;-61
2022/11/03 07:00:59;;;;;;;17.85;9.20;;;;;;;;;;5051292;28;20047;-60
2022/11/03 07:03:29;;;;;;;19.13;9.43;;;;;;;;;;5051443;28;20035;-59
2022/11/03 07:05:56;;;;;;;17.73;8.80;;;;;;;;;;5061521;28;20128;-60
2022/11/03 07:08:34;;;;;;;19.55;9.52;;;;;;;;;;5057667;28;20036;-58
2022/11/03 07:11:02;;;;;;;22.92;9.38;;;;;;;;;;5050715;28;20419;-61
2022/11/03 07:13:31;;;;;;;20.80;9.70;;;;;;;;;;5032796;28;20029;-59
2022/11/03 07:15:56;;;;;;;;;;;;;;;;;;5034102;28;20116;-58
2022/11/03 07:18:27;;;;;;;21.77;9.15;;;;;;;;;;5051130;28;19943;-61
2022/11/03 07:20:54;;;;;;;17.85;9.00;;;;;;;;;;5050509;28;20065;-60
2022/11/03 07:23:22;;;;;;;26.23;9.85;;;;;;;;;;5050043;28;20043;-59
2022/11/03 07:25:53;;;;;;;18.85;10.05;;;;;;;;;;5051146;28;20108;-57
2022/11/03 07:28:19;;;;;;;20.40;8.85;;;;;;;;;;5051268;28;20029;-58
2022/11/03 07:30:45;;;;;;;18.80;9.32;;;;;;;;;;5032970;28;20028;-58
2022/11/03 07:33:30;;;;;;;20.33;9.57;;;;;;;;;;5032316;28;20029;-57
2022/11/03 07:35:57;;;;;;;25.50;9.43;;;;;;;;;;5033365;28;20036;-60
2022/11/03 07:38:25;;;;;;;18.17;8.63;;;;;;;;;;5050872;28;20029;-59
2022/11/03 07:40:52;;;;;;;21.20;10.13;;;;;;;;;;5051091;28;20108;-60
2022/11/03 07:43:20;;;;;;;28.25;9.48;;;;;;;;;;5050365;28;20032;-59
2022/11/03 07:45:51;;;;;;;19.90;9.30;;;;;;;;;;5050932;28;20156;-62
2022/11/03 07:48:17;;;;;;;16.13;8.65;;;;;;;;;;5051244;28;20033;-61
2022/11/03 07:50:43;;;;;;;18.77;9.57;;;;;;;;;;5051854;28;20123;-61
2022/11/03 07:53:14;;;;;;;20.90;10.13;;;;;;;;;;5032314;28;20120;-60
2022/11/03 07:55:40;;;;;;;18.80;9.13;;;;;;;;;;5051011;28;20647;-60
2022/11/03 07:58:18;;;;;;;20.20;10.50;;;;;;;;;;5032981;28;20060;-61
2022/11/03 08:00:44;;;;;;;18.88;10.05;;;;;;;;;;5051091;28;20029;-61
2022/11/03 08:03:17;;;;;;;18.77;9.50;;;;;;;;;;5050479;28;20092;-60
2022/11/03 08:05:43;;;;;;;19.02;9.77;;;;;;;;;;5055526;28;20127;-59
2022/11/03 08:08:09;;;;;;;17.70;9.30;;;;;;;;;;5041777;28;20032;-62
2022/11/03 08:10:35;;;;;;;18.60;9.52;;;;;;;;;;5051115;28;20037;-62
2022/11/03 08:13:01;;;;;;;19.73;9.60;;;;;;;;;;5057987;28;20067;-63
2022/11/03 08:15:27;;;;;;;17.73;9.10;;;;;;;;;;5039237;28;20078;-62
2022/11/03 08:17:57;;;;;;;21.38;10.15;;;;;;;;;;5037032;28;20027;-59
2022/11/03 08:20:23;;;;;;;21.63;9.23;;;;;;;;;;5060523;28;20028;-60
2022/11/03 08:22:49;;;;;;;19.20;9.50;;;;;;;;;;5053262;28;20107;-62
2022/11/03 08:25:15;;;;;;;17.88;9.68;;;;;;;;;;5049948;28;20445;-63
2022/11/03 08:27:41;;;;;;;20.33;9.52;;;;;;;;;;5050933;28;20032;-58
2022/11/03 08:30:08;;;;;;;18.33;9.32;;;;;;;;;;5050945;28;20032;-60
2022/11/03 08:32:34;;;;;;;19.77;9.68;;;;;;;;;;5053321;28;20077;-59
2022/11/03 08:35:00;;;;;;;20.25;9.50;;;;;;;;;;5053935;28;20025;-58
2022/11/03 08:37:26;;;;;;;17.95;9.05;;;;;;;;;;5054486;28;20032;-59
2022/11/03 08:39:52;;;;;;;20.00;9.35;;;;;;;;;;5036633;28;20557;-62
2022/11/03 08:42:18;;;;;;;17.65;9.07;;;;;;;;;;5036327;28;20020;-60
2022/11/03 08:44:44;;;;;;;17.60;9.80;;;;;;;;;;5053006;28;20180;-58
2022/11/03 08:47:10;;;;;;;20.00;9.75;;;;;;;;;;5035904;28;20027;-55
2022/11/03 08:49:36;;;;;;;19.98;9.70;;;;;;;;;;5053660;28;20111;-58
2022/11/03 08:52:02;;;;;;;18.27;9.75;;;;;;;;;;5054431;28;20075;-61
2022/11/03 08:54:28;;;;;;;20.20;9.45;;;;;;;;;;5053656;28;20033;-60
2022/11/03 08:56:54;;;;;;;21.08;10.02;;;;;;;;;;5059155;28;20029;-61
2022/11/03 08:59:20;;;;;;;23.38;10.20;;;;;;;;;;5044193;28;20140;-60
2022/11/03 09:01:46;;;;;;;20.02;9.95;;;;;;;;;;5065427;28;20393;-62
2022/11/03 09:04:12;;;;;;;19.23;9.20;;;;;;;;;;5062413;28;20125;-61
2022/11/03 09:06:40;;;;;;;20.42;9.05;;;;;;;;;;5064256;28;20481;-59
2022/11/03 09:09:06;;;;;;;22.00;9.48;;;;;;;;;;5036990;28;20017;-57
2022/11/03 09:11:32;;;;;;;20.23;10.38;;;;;;;;;;5061959;28;20037;-62
2022/11/03 09:13:58;;;;;;;16.70;9.23;;;;;;;;;;5071955;28;20020;-60
2022/11/03 09:16:24;;;;;;;21.05;9.43;;;;;;;;;;5073396;28;20035;-58
2022/11/03 09:18:50;;;;;;;22.85;9.90;;;;;;;;;;5074618;28;20029;-62
2022/11/03 09:21:17;;;;;;;19.00;9.80;;;;;;;;;;5056583;28;20035;-60
2022/11/03 09:23:43;;;;;;;18.60;9.15;;;;;;;;;;5055806;28;20020;-59
2022/11/03 09:26:09;;;;;;;22.45;9.63;;;;;;;;;;5073706;28;20047;-58
2022/11/03 09:28:35;;;;;;;22.42;9.90;;;;;;;;;;5055665;28;20028;-62
2022/11/03 09:31:01;;;;;;;19.10;10.23;;;;;;;;;;5073307;28;20412;-60
2022/11/03 09:33:27;;;;;;;21.23;10.23;;;;;;;;;;5072709;28;20112;-59
2022/11/03 09:35:53;;;;;;;20.60;11.95;;;;;;;;;;5062068;28;20052;-62
2022/11/03 09:38:19;;;;;;;20.25;10.05;;;;;;;;;;5056192;28;20040;-58
2022/11/03 09:40:45;;;;;;;16.67;8.90;;;;;;;;;;5053123;28;20419;-60
2022/11/03 09:43:11;;;;;;;19.08;9.07;;;;;;;;;;5062279;28;20032;-62
2022/11/03 09:45:40;;;;;;;20.10;8.82;;;;;;;;;;5069570;28;20024;-59
2022/11/03 09:48:09;;;;;;;20.73;9.45;;;;;;;;;;5071685;28;20091;-63
2022/11/03 09:50:36;;;;;;;19.40;9.23;;;;;;;;;;5063144;28;20082;-62
2022/11/03 09:53:02;;;;;;;20.13;9.10;;;;;;;;;;5060872;28;20496;-59
2022/11/03 09:55:28;;;;;;;19.92;9.02;;;;;;;;;;5064585;28;20032;-60
2022/11/03 09:57:57;;;;;;;18.63;9.23;;;;;;;;;;5064342;28;20064;-60
2022/11/03 10:00:23;;;;;;;;;;;;;;;;;;5049757;28;20025;-63
2022/11/03 10:02:49;;;;;;;18.25;8.85;;;;;;;;;;5073288;28;20371;-63
2022/11/03 10:05:21;;;;;;;17.83;9.25;;;;;;;;;;5071991;28;20032;-60
2022/11/03 10:07:47;;;;;;;20.48;9.43;;;;;;;;;;5064558;28;20075;-62
2022/11/03 10:10:18;;;;;;;17.67;9.27;;;;;;;;;;5052717;28;20032;-62
2022/11/03 10:12:44;;;;;;;19.20;9.15;;;;;;;;;;5052480;28;20052;-62
2022/11/03 10:15:14;;;;;;;16.98;9.13;;;;;;;;;;5051911;28;20107;-58
2022/11/03 10:17:41;;;;;;;19.10;9.55;;;;;;;;;;5052586;28;20029;-62
2022/11/03 10:20:10;;;;;;;19.67;10.05;;;;;;;;;;5034242;28;20119;-61
2022/11/03 10:22:36;;;;;;;21.95;11.68;;;;;;;;;;5052202;28;20067;-62
2022/11/03 10:25:21;;;;;;;19.40;10.82;;;;;;;;;;5051587;28;20021;-62
2022/11/03 10:27:47;;;;;;;18.10;10.02;;;;;;;;;;5034343;28;20025;-60
2022/11/03 10:30:13;;;;;;;17.83;9.82;;;;;;;;;;5052121;28;20519;-60
2022/11/03 10:32:40;;;;;;;20.15;9.70;;;;;;;;;;5051735;28;20032;-58
2022/11/03 10:35:25;;;;;;;17.52;9.23;;;;;;;;;;5051290;28;20518;-60
2022/11/03 10:37:51;;;;;;;19.40;9.80;;;;;;;;;;5034494;28;20091;-61
2022/11/03 10:40:34;;;;;;;19.83;10.20;;;;;;;;;;5052180;28;20366;-61
2022/11/03 10:43:00;;;;;;;18.40;9.45;;;;;;;;;;5052507;28;20036;-62
2022/11/03 10:45:26;;;;;;;17.77;9.57;;;;;;;;;;5034140;28;20055;-61
2022/11/03 10:47:59;;;;;;;21.00;10.80;;;;;;;;;;5034886;28;20013;-63
2022/11/03 10:50:26;;;;;;;19.20;10.50;;;;;;;;;;5061397;23;20045;-64
2022/11/03 10:52:53;;;;;;;16.85;9.93;;;;;;;;;;5052573;28;20025;-65
2022/11/03 10:55:20;;;;;;;18.60;10.63;;;;;;;;;;5049655;28;20417;-65
2022/11/03 10:57:46;;;;;;;19.75;9.90;;;;;;;;;;5052173;28;20024;-60
2022/11/03 11:00:14;;;;;;;18.77;10.15;;;;;;;;;;5052278;28;20104;-63
2022/11/03 11:02:41;;;;;;;20.50;9.93;;;;;;;;;;5052307;28;20398;-65
2022/11/03 11:05:20;;;;;;;16.70;9.90;;;;;;;;;;5051439;28;20028;-64
2022/11/03 11:07:46;;;;;;;17.52;10.00;;;;;;;;;;5051304;28;20489;-60
2022/11/03 11:10:15;;;;;;;21.23;11.10;;;;;;;;;;5050867;28;20056;-64
2022/11/03 11:13:01;;;;;;;16.65;10.00;;;;;;;;;;5051707;28;20020;-66
2022/11/03 11:15:36;;;;;;;17.98;10.20;;;;;;;;;;5051577;28;20044;-67
2022/11/03 11:18:02;;;;;;;17.45;10.15;;;;;;;;;;5051629;28;20370;-67
2022/11/03 11:20:28;;;;;;;20.23;11.10;;;;;;;;;;5050134;28;20036;-67
2022/11/03 11:22:54;;;;;;;21.85;11.00;;;;;;;;;;5050646;28;20492;-66
2022/11/03 11:25:20;;;;;;;18.50;10.40;;;;;;;;;;5051523;28;20033;-68
2022/11/03 11:27:46;;;;;;;18.65;11.02;;;;;;;;;;5051181;28;20021;-67
2022/11/03 11:30:18;;;;;;;20.45;10.93;;;;;;;;;;5052217;28;20021;-68
2022/11/03 11:32:44;;;;;;;19.13;10.88;;;;;;;;;;5044300;28;20025;-67
2022/11/03 11:35:16;;;;;;;19.77;11.88;;;;;;;;;;5031733;28;20025;-69
2022/11/03 11:37:43;;;;;;;18.05;10.93;;;;;;;;;;5032063;28;20026;-69
2022/11/03 11:40:24;;;;;;;18.77;11.02;;;;;;;;;;5031001;28;20041;-67
2022/11/03 11:42:59;;;;;;;19.85;11.30;;;;;;;;;;5032444;28;20079;-67
2022/11/03 11:45:44;;;;;;;16.75;10.57;;;;;;;;;;5030515;28;20087;-68
2022/11/03 11:48:16;;;;;;;18.48;10.25;;;;;;;;;;5040196;28;20493;-67
2022/11/03 11:50:42;;;;;;;20.23;10.63;;;;;;;;;;5049910;28;20048;-67
2022/11/03 11:53:12;;;;;;;17.92;10.45;;;;;;;;;;5040316;28;20125;-67
2022/11/03 11:55:41;;;;;;;19.02;10.43;;;;;;;;;;5043821;28;20466;-67
2022/11/03 11:58:16;;;;;;;19.33;10.60;;;;;;;;;;5043827;28;20021;-67
2022/11/03 12:00:56;;;;;;;16.95;10.30;;;;;;;;;;5051950;28;20055;-67
2022/11/03 12:03:25;;;;;;;21.38;10.68;;;;;;;;;;5050132;28;20025;-66
2022/11/03 12:05:51;;;;;;;19.67;10.98;;;;;;;;;;5052642;28;20029;-68
2022/11/03 12:08:17;;;;;;;18.65;11.13;;;;;;;;;;5056008;28;20025;-67
2022/11/03 12:10:52;;;;;;;17.77;9.93;;;;;;;;;;5055354;28;20110;-67
2022/11/03 12:13:54;;;;;;;16.73;10.35;;;;;;;;;;5053205;28;20040;-67
2022/11/03 12:16:29;;;;;;;21.15;10.38;;;;;;;;;;4999925;28;20117;-67
2022/11/03 12:18:56;;;;;;;20.50;11.05;;;;;;;;;;5042399;28;20056;-67
2022/11/03 12:21:40;;;;;;;18.67;11.45;;;;;;;;;;5054937;28;20454;-66
2022/11/03 12:24:25;;;;;;;19.38;11.52;;;;;;;;;;5054589;28;20021;-67
2022/11/03 12:26:51;;;;;;;19.55;11.95;;;;;;;;;;5055705;28;20438;-64
2022/11/03 12:29:17;;;;;;;18.25;11.43;;;;;;;;;;5056081;28;20021;-66
2022/11/03 12:31:44;;;;;;;20.17;12.20;;;;;;;;;;5074012;28;20726;-64
2022/11/03 12:34:10;;;;;;;20.42;12.32;;;;;;;;;;5072612;28;20021;-64
2022/11/03 12:36:36;;;;;;;19.02;11.90;;;;;;;;;;5075323;28;20402;-67
2022/11/03 12:39:02;;;;;;;22.00;12.05;;;;;;;;;;5073651;28;20036;-65
2022/11/03 12:41:28;;;;;;;19.02;12.60;;;;;;;;;;4354073;28;10000704;-66
2022/11/03 12:43:54;;;;;;;19.73;12.25;;;;;;;;;;5047180;28;20035;-67
2022/11/03 12:46:21;;;;;;;18.63;12.00;;;;;;;;;;5047805;28;20049;-66
2022/11/03 12:48:48;;;;;;;19.00;12.40;;;;;;;;;;5047387;28;20444;-66
2022/11/03 12:51:15;;;;;;;18.60;12.27;;;;;;;;;;5043917;28;20043;-65
2022/11/03 12:53:41;;;;;;;18.70;12.30;;;;;;;;;;5047128;28;20025;-65
2022/11/03 12:56:08;;;;;;;20.13;12.10;;;;;;;;;;5054926;28;20048;-66
2022/11/03 12:58:34;;;;;;;19.10;11.80;;;;;;;;;;4700759;28;10000286;-66
2022/11/03 13:01:00;;;;;;;18.30;11.02;;;;;;;;;;5050582;28;20056;-67
2022/11/03 13:03:27;;;;;;;15.90;11.20;;;;;;;;;;5050038;28;20032;-67
2022/11/03 13:05:53;;;;;;;20.55;12.38;;;;;;;;;;5051701;28;20032;-65
2022/11/03 13:08:19;;;;;;;20.17;12.13;;;;;;;;;;5053286;28;20434;-66
2022/11/03 13:10:45;;;;;;;17.83;10.77;;;;;;;;;;5054614;28;20063;-66
2022/11/03 13:13:11;;;;;;;18.63;11.60;;;;;;;;;;4701196;28;10000137;-66
2022/11/03 13:15:37;;;;;;;17.38;10.82;;;;;;;;;;5038317;28;20097;-68
2022/11/03 13:18:06;;;;;;;18.65;12.00;;;;;;;;;;5029743;28;20124;-66
2022/11/03 13:20:33;;;;;;;19.42;11.55;;;;;;;;;;5031503;28;20063;-65
2022/11/03 13:22:59;;;;;;;19.30;11.85;;;;;;;;;;5030054;28;20018;-67
2022/11/03 13:25:27;;;;;;;19.08;11.18;;;;;;;;;;5029399;28;20061;-65
2022/11/03 13:27:53;;;;;;;20.07;12.07;;;;;;;;;;5030158;28;20029;-65
2022/11/03 13:30:26;;;;;;;19.85;11.90;;;;;;;;;;5030399;28;20026;-66
2022/11/03 13:32:52;;;;;;;18.48;11.10;;;;;;;;;;5031996;28;20021;-66
2022/11/03 13:35:18;;;;;;;17.67;11.80;;;;;;;;;;5031526;28;20036;-66
2022/11/03 13:37:45;;;;;;;18.95;11.90;;;;;;;;;;5037580;28;20021;-64
2022/11/03 13:40:15;;;;;;;17.70;11.38;;;;;;;;;;5029966;28;20565;-65
2022/11/03 13:42:41;;;;;;;16.88;11.52;;;;;;;;;;5048616;28;20419;-65
2022/11/03 13:45:08;;;;;;;17.45;11.30;;;;;;;;;;5051041;28;20056;-66
2022/11/03 13:47:34;;;;;;;17.90;10.85;;;;;;;;;;5048880;28;21454;-66
2022/11/03 13:50:01;;;;;;;18.38;11.75;;;;;;;;;;5044445;28;20119;-66
2022/11/03 13:52:27;;;;;;;18.48;11.50;;;;;;;;;;5051039;28;20029;-67
2022/11/03 13:54:53;;;;;;;17.02;11.57;;;;;;;;;;5041888;28;20029;-66
2022/11/03 13:57:20;;;;;;;16.85;11.85;;;;;;;;;;5036613;28;20555;-67
2022/11/03 13:59:46;;;;;;;19.15;12.20;;;;;;;;;;5031463;28;20025;-68
2022/11/03 14:02:13;;;;;;;18.40;11.00;;;;;;;;;;5031110;28;20075;-65
2022/11/03 14:04:39;;;;;;;18.10;11.77;;;;;;;;;;5033321;28;20025;-66
2022/11/03 14:07:06;;;;;;;17.65;11.13;;;;;;;;;;5034810;28;20104;-66
2022/11/03 14:09:31;;;;;;;18.25;11.20;;;;;;;;;;5033882;28;20052;-66
2022/11/03 14:14:42;;;;;;;18.48;11.57;;;;;;;;;;5052190;28;20040;-65
2022/11/03 14:17:08;;;;;;;17.45;10.95;;;;;;;;;;5047904;28;20030;-66
2022/11/03 14:19:34;;;;;;;17.17;11.40;;;;;;;;;;5031991;28;20029;-67
2022/11/03 14:22:00;;;;;;;17.52;10.73;;;;;;;;;;5042938;28;20029;-66
2022/11/03 14:24:27;;;;;;;17.58;11.40;;;;;;;;;;5052108;28;20021;-67
2022/11/03 14:26:53;;;;;;;16.88;11.52;;;;;;;;;;5046398;28;20239;-67
2022/11/03 14:29:19;;;;;;;17.40;11.48;;;;;;;;;;5048229;28;20024;-66
2022/11/03 14:31:45;;;;;;;16.48;11.15;;;;;;;;;;5032578;28;20024;-65
2022/11/03 14:34:11;;;;;;;18.38;12.27;;;;;;;;;;5046263;28;20025;-66
2022/11/03 14:36:37;;;;;;;17.38;11.60;;;;;;;;;;5052879;28;20562;-66
2022/11/03 14:39:03;;;;;;;17.58;11.45;;;;;;;;;;5053175;28;20028;-66
2022/11/03 14:44:13;;;;;;;16.42;10.65;;;;;;;;;;4701734;28;9999825;-67
2022/11/03 14:46:39;;;;;;;16.13;10.52;;;;;;;;;;5053271;28;20044;-67
2022/11/03 14:49:05;;;;;;;18.13;11.20;;;;;;;;;;5052524;28;20374;-66
2022/11/03 14:51:31;;;;;;;17.20;10.57;;;;;;;;;;5052357;28;20071;-66
2022/11/03 14:53:57;;;;;;;19.13;11.40;;;;;;;;;;5052760;28;20017;-66
2022/11/03 14:56:23;;;;;;;17.63;10.90;;;;;;;;;;5053113;28;20028;-66
2022/11/03 14:58:50;;;;;;;16.05;10.20;;;;;;;;;;5052958;28;20025;-67